Waimanalo, Hawaii
Current Conditions -  °F | °C
As of 3:57 AM on Saturday 25 Oct 2014 (Local Time) from PHNG Reporting Station
Scattered Clouds Scattered Clouds  
Wind Chill: 77°   Ceiling: Unl
Heat Index: 79°   Visibility: 10mi
Dew Point: 71°   Wind: 3mph
Humidity: 82%   Direction: 80°E
Pressure: 30"   Gusts: NA
Location:  21.34°N, 157.71°W
Report Text: PHNG 251357Z AUTO 08003KT 10SM SCT020 25/22 A3000 RMK AO2 SLP153 T02500217 $
Loading
Personal Weather Stations






























Interactive Weather Map
Tropical Storm Tracking
New forecast layout! Learn more

10-Day Weather Forecast

Advertisements
Track Severe Weather on mobile